Time;durP1;ratioP1;P1;durP2;ratioP2;P2;SDS_P1;SDS_P2;PMS_P1;PMS_P2;Temp;Humidity;BMP_temperature;BMP_pressure;BME280_temperature;BME280_humidity;BME280_pressure;Samples;Min_cycle;Max_cycle;Signal;HPM_P1;HPM_P2
2021/09/15 00:02:10;;;;;;;;;;;;;;;;;;5038837;28;19920;-63
2021/09/15 00:04:54;;;;;;;;;;;;;;;;;;5057752;28;20376;-63
2021/09/15 00:07:39;;;;;;;;;;;;;;;;;;5045721;28;19920;-63
2021/09/15 00:10:23;;;;;;;;;;;;;;;;;;5040935;28;19991;-63
2021/09/15 00:13:09;;;;;;;;;;;;;;;;;;5045345;28;19921;-63
2021/09/15 00:15:53;;;;;;;;;;;;;;;;;;5031935;28;19936;-63
2021/09/15 00:18:37;;;;;;;;;;;;;;;;;;5039180;28;19919;-63
2021/09/15 00:21:21;;;;;;;;;;;;;;;;;;5042994;28;20520;-65
2021/09/15 00:24:06;;;;;;;;;;;;;;;;;;5036034;28;19924;-64
2021/09/15 00:26:50;;;;;;;;;;;;;;;;;;5035605;28;20384;-64
2021/09/15 00:29:34;;;;;;;;;;;;;;;;;;5036034;28;19920;-64
2021/09/15 00:32:18;;;;;;;;;;;;;;;;;;5041244;28;19920;-65
2021/09/15 00:35:02;;;;;;;;;;;;;;;;;;5038896;28;19920;-65
2021/09/15 00:37:46;;;;;;;;;;;;;;;;;;5055346;28;19923;-65
2021/09/15 00:40:31;;;;;;;;;;;;;;;;;;5053835;28;19927;-65
2021/09/15 00:43:15;;;;;;;;;;;;;;;;;;5035608;28;19920;-64
2021/09/15 00:45:59;;;;;;;;;;;;;;;;;;5035780;28;20372;-65
2021/09/15 00:48:43;;;;;;;;;;;;;;;;;;5035467;28;19920;-64
2021/09/15 00:51:27;;;;;;;;;;;;;;;;;;5035448;28;19923;-64
2021/09/15 00:54:11;;;;;;;;;;;;;;;;;;5041031;28;19920;-64
2021/09/15 00:56:58;;;;;;;;;;;;;;;;;;5037741;28;19924;-64
2021/09/15 00:59:44;;;;;;;;;;;;;;;;;;5055201;28;19920;-65
2021/09/15 01:02:29;;;;;;;;;;;;;;;;;;5048358;28;19989;-64
2021/09/15 01:05:15;;;;;;;;;;;;;;;;;;5040026;28;19920;-65
2021/09/15 01:08:03;;;;;;;;;;;;;;;;;;5043837;28;19987;-65
2021/09/15 01:10:48;;;;;;;;;;;;;;;;;;5048584;28;19927;-65
2021/09/15 01:13:39;;;;;;;;;;;;;;;;;;5051458;28;20304;-65
2021/09/15 01:16:45;;;;;;;;;;;;;;;;;;5047974;28;20435;-65
2021/09/15 01:19:49;;;;;;;;;;;;;;;;;;5041825;28;19921;-65
2021/09/15 01:22:52;;;;;;;;;;;;;;;;;;5044922;28;20317;-65
2021/09/15 01:25:55;;;;;;;;;;;;;;;;;;5040207;28;19919;-65
2021/09/15 01:29:12;;;;;;;;;;;;;;;;;;5044643;28;19920;-65
2021/09/15 01:31:57;;;;;;;;;;;;;;;;;;5044201;28;19920;-65
2021/09/15 01:34:42;;;;;;;;;;;;;;;;;;5047027;28;19919;-65
2021/09/15 01:37:29;;;;;;;;;;;;;;;;;;5039057;28;19924;-63
2021/09/15 01:40:17;;;;;;;;;;;;;;;;;;5051229;28;19969;-64
2021/09/15 01:43:02;;;;;;;;;;;;;;;;;;5050588;28;19928;-64
2021/09/15 01:45:46;;;;;;;;;;;;;;;;;;5039613;28;19920;-63
2021/09/15 01:48:36;;;;;;;;;;;;;;;;;;5050248;28;19919;-64
2021/09/15 01:51:21;;;;;;;;;;;;;;;;;;5057167;28;19924;-64
2021/09/15 01:54:05;;;;;;;;;;;;;;;;;;5046196;28;19920;-64
2021/09/15 01:56:49;;;;;;;;;;;;;;;;;;5037299;28;19932;-65
2021/09/15 01:59:52;;;;;;;;;;;;;;;;;;5034316;28;20381;-65
2021/09/15 02:03:06;;;;;;;;;;;;;;;;;;5053707;28;19932;-65
2021/09/15 02:05:58;;;;;;;;;;;;;;;;;;5059919;28;19923;-64
2021/09/15 02:08:51;;;;;;;;;;;;;;;;;;5034913;28;19923;-64
2021/09/15 02:11:53;;;;;;;;;;;;;;;;;;5045794;28;19919;-64
2021/09/15 02:14:37;;;;;;;;;;;;;;;;;;5056749;28;20305;-64
2021/09/15 02:17:22;;;;;;;;;;;;;;;;;;5048717;28;19924;-64
2021/09/15 02:20:11;;;;;;;;;;;;;;;;;;5062710;28;19935;-64
2021/09/15 02:23:08;;;;;;;;;;;;;;;;;;5051820;28;19924;-64
2021/09/15 02:26:03;;;;;;;;;;;;;;;;;;5050974;28;20304;-64
2021/09/15 02:28:55;;;;;;;;;;;;;;;;;;5052651;28;19928;-64
2021/09/15 02:31:54;;;;;;;;;;;;;;;;;;5051444;28;20422;-64
2021/09/15 02:35:13;;;;;;;;;;;;;;;;;;5086024;28;19919;-64
2021/09/15 02:38:08;;;;;;;;;;;;;;;;;;5045940;28;19924;-63
2021/09/15 02:41:25;;;;;;;;;;;;;;;;;;5041037;28;19928;-63
2021/09/15 02:44:24;;;;;;;;;;;;;;;;;;5046920;28;19936;-64
2021/09/15 02:47:34;;;;;;;;;;;;;;;;;;5045070;28;19984;-64
2021/09/15 02:50:33;;;;;;;;;;;;;;;;;;5042063;28;19936;-64
2021/09/15 02:53:37;;;;;;;;;;;;;;;;;;5049710;28;19920;-64
2021/09/15 02:56:40;;;;;;;;;;;;;;;;;;5043534;28;19932;-65
2021/09/15 02:59:43;;;;;;;;;;;;;;;;;;5041185;28;19920;-66
2021/09/15 03:02:52;;;;;;;;;;;;;;;;;;5046484;28;19920;-65
2021/09/15 03:05:56;;;;;;;;;;;;;;;;;;5039735;28;19972;-65
2021/09/15 03:08:56;;;;;;;;;;;;;;;;;;5046272;28;19924;-65
2021/09/15 03:11:40;;;;;;;;;;;;;;;;;;5043352;28;19924;-65
2021/09/15 03:14:26;;;;;;;;;;;;;;;;;;5043734;28;20407;-65
2021/09/15 03:17:10;;;;;;;;;;;;;;;;;;5043614;28;19924;-65
2021/09/15 03:19:55;;;;;;;;;;;;;;;;;;5045576;28;19920;-65
2021/09/15 03:22:39;;;;;;;;;;;;;;;;;;5046888;28;19943;-65
2021/09/15 03:25:24;;;;;;;;;;;;;;;;;;5047430;28;19920;-65
2021/09/15 03:28:08;;;;;;;;;;;;;;;;;;5042594;28;19928;-65
2021/09/15 03:30:52;;;;;;;;;;;;;;;;;;5048037;28;19927;-65
2021/09/15 03:33:36;;;;;;;;;;;;;;;;;;5046457;28;19920;-65
2021/09/15 03:36:21;;;;;;;;;;;;;;;;;;5045367;28;19919;-65
2021/09/15 03:39:06;;;;;;;;;;;;;;;;;;5037854;28;19924;-65
2021/09/15 03:41:50;;;;;;;;;;;;;;;;;;5048375;28;19920;-65
2021/09/15 03:44:34;;;;;;;;;;;;;;;;;;5041995;28;20126;-65
2021/09/15 03:47:18;;;;;;;;;;;;;;;;;;5042996;28;19924;-65
2021/09/15 03:50:02;;;;;;;;;;;;;;;;;;5047852;28;19936;-65
2021/09/15 03:52:46;;;;;;;;;;;;;;;;;;5045864;28;19920;-65
2021/09/15 03:55:31;;;;;;;;;;;;;;;;;;5045892;28;19920;-65
2021/09/15 03:58:15;;;;;;;;;;;;;;;;;;5047805;28;19940;-65
2021/09/15 04:00:59;;;;;;;;;;;;;;;;;;5049349;28;19928;-66
2021/09/15 04:03:44;;;;;;;;;;;;;;;;;;5046747;28;19928;-65
2021/09/15 04:06:28;;;;;;;;;;;;;;;;;;5044244;28;19925;-65
2021/09/15 04:09:12;;;;;;;;;;;;;;;;;;5048355;28;19924;-65
2021/09/15 04:12:00;;;;;;;;;;;;;;;;;;5051687;28;19920;-65
2021/09/15 04:14:44;;;;;;;;;;;;;;;;;;5048685;28;19920;-65
2021/09/15 04:17:29;;;;;;;;;;;;;;;;;;5046907;28;19932;-65
2021/09/15 04:20:13;;;;;;;;;;;;;;;;;;5046241;28;19920;-65
2021/09/15 04:22:58;;;;;;;;;;;;;;;;;;5043503;28;20439;-67
2021/09/15 04:31:50;;;;;;;;;;;;;;;;;;5052568;28;19919;-67
2021/09/15 04:34:34;;;;;;;;;;;;;;;;;;5054716;28;19920;-67
2021/09/15 04:37:19;;;;;;;;;;;;;;;;;;5048569;28;20647;-67
2021/09/15 04:40:04;;;;;;;;;;;;;;;;;;5067831;28;19928;-67
2021/09/15 04:42:49;;;;;;;;;;;;;;;;;;5045645;28;19919;-67
2021/09/15 04:45:33;;;;;;;;;;;;;;;;;;5050737;28;19920;-67
2021/09/15 04:48:17;;;;;;;;;;;;;;;;;;5032854;28;19920;-67
2021/09/15 04:51:01;;;;;;;;;;;;;;;;;;5047808;28;19923;-67
2021/09/15 04:53:45;;;;;;;;;;;;;;;;;;5049355;28;19944;-67
2021/09/15 04:56:30;;;;;;;;;;;;;;;;;;5045062;28;19920;-67
2021/09/15 04:59:15;;;;;;;;;;;;;;;;;;5053138;28;20419;-67
2021/09/15 05:01:59;;;;;;;;;;;;;;;;;;5058118;28;20236;-67
2021/09/15 05:04:43;;;;;;;;;;;;;;;;;;5046680;28;19920;-67
2021/09/15 05:07:39;;;;;;;;;;;;;;;;;;5047404;28;20233;-67
2021/09/15 05:10:26;;;;;;;;;;;;;;;;;;5044157;28;20333;-67
2021/09/15 05:13:12;;;;;;;;;;;;;;;;;;5052024;28;19920;-67
2021/09/15 05:15:59;;;;;;;;;;;;;;;;;;5043538;28;19920;-67
2021/09/15 05:18:44;;;;;;;;;;;;;;;;;;5044041;28;19928;-67
2021/09/15 05:21:29;;;;;;;;;;;;;;;;;;5043757;28;19920;-67
2021/09/15 05:24:13;;;;;;;;;;;;;;;;;;5045617;28;19920;-67
2021/09/15 05:26:57;;;;;;;;;;;;;;;;;;5049307;28;19920;-66
2021/09/15 05:29:44;;;;;;;;;;;;;;;;;;5065813;28;20292;-66
2021/09/15 05:32:29;;;;;;;;;;;;;;;;;;5058559;28;19935;-66
2021/09/15 05:35:14;;;;;;;;;;;;;;;;;;5050480;28;19936;-65
2021/09/15 05:37:59;;;;;;;;;;;;;;;;;;5038466;28;19940;-65
2021/09/15 05:40:43;;;;;;;;;;;;;;;;;;5047759;28;19920;-65
2021/09/15 05:43:28;;;;;;;;;;;;;;;;;;5048289;28;19924;-66
2021/09/15 05:46:13;;;;;;;;;;;;;;;;;;5049876;28;20401;-66
2021/09/15 05:48:57;;;;;;;;;;;;;;;;;;5045107;28;20103;-66
2021/09/15 05:51:42;;;;;;;;;;;;;;;;;;5044427;28;19920;-66
2021/09/15 05:54:27;;;;;;;;;;;;;;;;;;5048605;28;19920;-66
2021/09/15 05:57:11;;;;;;;;;;;;;;;;;;5045426;28;19923;-66
2021/09/15 05:59:55;;;;;;;;;;;;;;;;;;5042976;28;19932;-66
2021/09/15 06:02:39;;;;;;;;;;;;;;;;;;5042457;28;19991;-66
2021/09/15 06:05:26;;;;;;;;;;;;;;;;;;5045140;28;20412;-65
2021/09/15 06:08:10;;;;;;;;;;;;;;;;;;5043039;28;19920;-66
2021/09/15 06:10:56;;;;;;;;;;;;;;;;;;5047738;28;20401;-66
2021/09/15 06:13:40;;;;;;;;;;;;;;;;;;5046868;28;19948;-65
2021/09/15 06:16:25;;;;;;;;;;;;;;;;;;5045237;28;19919;-65
2021/09/15 06:19:09;;;;;;;;;;;;;;;;;;5049585;28;20292;-68
2021/09/15 06:22:26;;;;;;;;;;;;;;;;;;5043929;28;19920;-68
2021/09/15 06:25:17;;;;;;;;;;;;;;;;;;5043819;28;19920;-68
2021/09/15 06:28:02;;;;;;;;;;;;;;;;;;5045708;28;19936;-69
2021/09/15 06:30:47;;;;;;;;;;;;;;;;;;5047908;28;19920;-69
2021/09/15 06:33:31;;;;;;;;;;;;;;;;;;5045539;28;19984;-68
2021/09/15 06:36:15;;;;;;;;;;;;;;;;;;5043283;28;19936;-68
2021/09/15 06:39:00;;;;;;;;;;;;;;;;;;5043364;28;19932;-69
2021/09/15 06:41:44;;;;;;;;;;;;;;;;;;5060241;28;19942;-68
2021/09/15 06:44:28;;;;;;;;;;;;;;;;;;5044557;28;19924;-69
2021/09/15 06:47:13;;;;;;;;;;;;;;;;;;5045392;28;20404;-69
2021/09/15 06:49:57;;;;;;;;;;;;;;;;;;5043552;28;19920;-69
2021/09/15 06:52:41;;;;;;;;;;;;;;;;;;5043430;28;19928;-69
2021/09/15 06:55:25;;;;;;;;;;;;;;;;;;5043466;28;20296;-68
2021/09/15 06:58:09;;;;;;;;;;;;;;;;;;5042732;28;19924;-68
2021/09/15 07:00:53;;;;;;;;;;;;;;;;;;5046786;28;19920;-69
2021/09/15 07:03:38;;;;;;;;;;;;;;;;;;5041705;28;19920;-68
2021/09/15 07:06:22;;;;;;;;;;;;;;;;;;5041153;28;19921;-68
2021/09/15 07:09:08;;;;;;;;;;;;;;;;;;5045017;28;19924;-69
2021/09/15 07:11:53;;;;;;;;;;;;;;;;;;5042018;28;19928;-69
2021/09/15 07:14:37;;;;;;;;;;;;;;;;;;5040659;28;20304;-69
2021/09/15 07:17:21;;;;;;;;;;;;;;;;;;5040882;28;20300;-68
2021/09/15 07:20:05;;;;;;;;;;;;;;;;;;5041057;28;19920;-68
2021/09/15 07:22:49;;;;;;;;;;;;;;;;;;5040301;28;19920;-68
2021/09/15 07:25:33;;;;;;;;;;;;;;;;;;5043039;28;19920;-68
2021/09/15 07:28:17;;;;;;;;;;;;;;;;;;5041302;28;19923;-68
2021/09/15 07:31:02;;;;;;;;;;;;;;;;;;5044267;28;20296;-68
2021/09/15 07:33:46;;;;;;;;;;;;;;;;;;5043762;28;19920;-68
2021/09/15 07:36:30;;;;;;;;;;;;;;;;;;5041542;28;19920;-68
2021/09/15 07:39:14;;;;;;;;;;;;;;;;;;5042274;28;19924;-68
2021/09/15 07:41:58;;;;;;;;;;;;;;;;;;5042691;28;19925;-68
2021/09/15 07:44:43;;;;;;;;;;;;;;;;;;5042802;28;19971;-68
2021/09/15 07:47:27;;;;;;;;;;;;;;;;;;5042470;28;19920;-68
2021/09/15 07:50:11;;;;;;;;;;;;;;;;;;5043481;28;20297;-68
2021/09/15 07:52:55;;;;;;;;;;;;;;;;;;5042352;28;19936;-67
2021/09/15 07:55:39;;;;;;;;;;;;;;;;;;5041737;28;20404;-67
2021/09/15 07:58:24;;;;;;;;;;;;;;;;;;5042705;28;19923;-68
2021/09/15 08:01:08;;;;;;;;;;;;;;;;;;5047213;28;19924;-68
2021/09/15 08:03:52;;;;;;;;;;;;;;;;;;5041611;28;19920;-68
2021/09/15 08:06:37;;;;;;;;;;;;;;;;;;5042132;28;20380;-68
2021/09/15 08:09:21;;;;;;;;;;;;;;;;;;5042440;28;19931;-68
2021/09/15 08:12:05;;;;;;;;;;;;;;;;;;5042501;28;19923;-67
2021/09/15 08:14:49;;;;;;;;;;;;;;;;;;5042126;28;20276;-68
2021/09/15 08:17:33;;;;;;;;;;;;;;;;;;5041321;28;20304;-68
2021/09/15 08:20:17;;;;;;;;;;;;;;;;;;5040743;28;19980;-68
2021/09/15 08:23:03;;;;;;;;;;;;;;;;;;5042553;28;19920;-68
2021/09/15 08:25:47;;;;;;;;;;;;;;;;;;5042494;28;19920;-68
2021/09/15 08:28:36;;;;;;;;;;;;;;;;;;5041448;28;19920;-68
2021/09/15 08:31:20;;;;;;;;;;;;;;;;;;5040348;28;20877;-68
2021/09/15 08:34:04;;;;;;;;;;;;;;;;;;5040297;28;20392;-68
2021/09/15 08:36:49;;;;;;;;;;;;;;;;;;5040514;28;19940;-68
2021/09/15 08:39:33;;;;;;;;;;;;;;;;;;5041255;28;20297;-67
2021/09/15 08:42:18;;;;;;;;;;;;;;;;;;5044345;28;19920;-68
2021/09/15 08:45:02;;;;;;;;;;;;;;;;;;5045876;28;19920;-68
2021/09/15 08:47:46;;;;;;;;;;;;;;;;;;5045782;28;19919;-68
2021/09/15 08:50:30;;;;;;;;;;;;;;;;;;5044949;28;19920;-68
2021/09/15 08:53:14;;;;;;;;;;;;;;;;;;5044811;28;20399;-68
2021/09/15 08:55:58;;;;;;;;;;;;;;;;;;5043973;28;19919;-68
2021/09/15 08:58:43;;;;;;;;;;;;;;;;;;5043466;28;19940;-68
2021/09/15 09:01:28;;;;;;;;;;;;;;;;;;5043607;28;19921;-68
2021/09/15 09:04:13;;;;;;;;;;;;;;;;;;5044619;28;19940;-68
2021/09/15 09:06:57;;;;;;;;;;;;;;;;;;5043547;28;19920;-68
2021/09/15 09:09:42;;;;;;;;;;;;;;;;;;5044562;28;19924;-68
2021/09/15 09:12:26;;;;;;;;;;;;;;;;;;5046694;28;19923;-69
2021/09/15 09:15:10;;;;;;;;;;;;;;;;;;5044246;28;19920;-68
2021/09/15 09:17:55;;;;;;;;;;;;;;;;;;5044217;28;20304;-68
2021/09/15 09:20:40;;;;;;;;;;;;;;;;;;5044294;28;19945;-68
2021/09/15 09:23:27;;;;;;;;;;;;;;;;;;5046802;28;19921;-68
2021/09/15 09:26:11;;;;;;;;;;;;;;;;;;5043995;28;19935;-67
2021/09/15 09:28:55;;;;;;;;;;;;;;;;;;5044467;28;20380;-67
2021/09/15 09:31:40;;;;;;;;;;;;;;;;;;5044801;28;19920;-68
2021/09/15 09:34:25;;;;;;;;;;;;;;;;;;5045054;28;19920;-67
2021/09/15 09:37:09;;;;;;;;;;;;;;;;;;5044589;28;19924;-68
2021/09/15 09:39:57;;;;;;;;;;;;;;;;;;5045716;28;20384;-68
2021/09/15 09:42:42;;;;;;;;;;;;;;;;;;5046206;28;19928;-66
2021/09/15 09:45:30;;;;;;;;;;;;;;;;;;5044988;28;19928;-67
2021/09/15 09:48:14;;;;;;;;;;;;;;;;;;5044722;28;19920;-66
2021/09/15 09:50:59;;;;;;;;;;;;;;;;;;5042787;28;19923;-66
2021/09/15 09:53:43;;;;;;;;;;;;;;;;;;5041938;28;20281;-67
2021/09/15 09:56:27;;;;;;;;;;;;;;;;;;5044672;28;19920;-66
2021/09/15 09:59:11;;;;;;;;;;;;;;;;;;5042018;28;19925;-67
2021/09/15 10:01:56;;;;;;;;;;;;;;;;;;5045756;28;19936;-67
2021/09/15 10:04:39;;;;;;;;;;;;;;;;;;5045914;28;19985;-67
2021/09/15 10:07:24;;;;;;;;;;;;;;;;;;5047612;28;19970;-66
2021/09/15 10:10:08;;;;;;;;;;;;;;;;;;5044184;28;19924;-66
2021/09/15 10:12:56;;;;;;;;;;;;;;;;;;5043064;28;19924;-67
2021/09/15 10:15:40;;;;;;;;;;;;;;;;;;5047288;28;19936;-67
2021/09/15 10:18:24;;;;;;;;;;;;;;;;;;5044066;28;19924;-67
2021/09/15 10:21:08;;;;;;;;;;;;;;;;;;5040954;28;19924;-67
2021/09/15 10:23:53;;;;;;;;;;;;;;;;;;5043126;28;19920;-67
2021/09/15 10:26:37;;;;;;;;;;;;;;;;;;5045234;28;19971;-67
2021/09/15 10:29:24;;;;;;;;;;;;;;;;;;5042533;28;19928;-67
2021/09/15 10:32:09;;;;;;;;;;;;;;;;;;5042056;28;19925;-67
2021/09/15 10:34:54;;;;;;;;;;;;;;;;;;5043884;28;20396;-67
2021/09/15 10:37:38;;;;;;;;;;;;;;;;;;5043528;28;19924;-67
2021/09/15 10:40:22;;;;;;;;;;;;;;;;;;5043826;28;20324;-67
2021/09/15 10:43:06;;;;;;;;;;;;;;;;;;5043803;28;19924;-67
2021/09/15 10:45:50;;;;;;;;;;;;;;;;;;5044562;28;19920;-67
2021/09/15 10:48:34;;;;;;;;;;;;;;;;;;5043005;28;19980;-67
2021/09/15 10:51:22;;;;;;;;;;;;;;;;;;5043276;28;19924;-67
2021/09/15 10:54:06;;;;;;;;;;;;;;;;;;5043574;28;19940;-67
2021/09/15 10:56:51;;;;;;;;;;;;;;;;;;5042749;28;20384;-67
2021/09/15 10:59:35;;;;;;;;;;;;;;;;;;5042207;28;19924;-67
2021/09/15 11:02:19;;;;;;;;;;;;;;;;;;5041879;28;19928;-67
2021/09/15 11:05:03;;;;;;;;;;;;;;;;;;5043784;28;19924;-67
2021/09/15 11:07:48;;;;;;;;;;;;;;;;;;5048678;28;19920;-67
2021/09/15 11:10:32;;;;;;;;;;;;;;;;;;5044560;28;19940;-66
2021/09/15 11:13:17;;;;;;;;;;;;;;;;;;5050917;28;20600;-67
2021/09/15 11:16:02;;;;;;;;;;;;;;;;;;5045773;28;20388;-67
2021/09/15 11:18:46;;;;;;;;;;;;;;;;;;5043022;28;19924;-67
2021/09/15 11:21:31;;;;;;;;;;;;;;;;;;5042507;28;19919;-67
2021/09/15 11:24:16;;;;;;;;;;;;;;;;;;5042140;28;19920;-67
2021/09/15 11:27:01;;;;;;;;;;;;;;;;;;5044520;28;19927;-67
2021/09/15 11:29:48;;;;;;;;;;;;;;;;;;5044154;28;19920;-67
2021/09/15 11:32:32;;;;;;;;;;;;;;;;;;5043835;28;19935;-67
2021/09/15 11:35:17;;;;;;;;;;;;;;;;;;5039789;28;20304;-67
2021/09/15 11:38:02;;;;;;;;;;;;;;;;;;5039481;28;19932;-67
2021/09/15 11:40:46;;;;;;;;;;;;;;;;;;5044488;28;19920;-67
2021/09/15 11:43:30;;;;;;;;;;;;;;;;;;5043863;28;19924;-67
2021/09/15 11:46:14;;;;;;;;;;;;;;;;;;5044924;28;20388;-67
2021/09/15 11:48:58;;;;;;;;;;;;;;;;;;5043126;28;19924;-67
2021/09/15 11:51:42;;;;;;;;;;;;;;;;;;5042766;28;19988;-67
2021/09/15 11:54:27;;;;;;;;;;;;;;;;;;5043768;28;20296;-67
2021/09/15 11:57:11;;;;;;;;;;;;;;;;;;5043434;28;19935;-67
2021/09/15 11:59:56;;;;;;;;;;;;;;;;;;5042853;28;19928;-66
2021/09/15 12:02:40;;;;;;;;;;;;;;;;;;5043307;28;19920;-66
2021/09/15 12:05:25;;;;;;;;;;;;;;;;;;5042353;28;19920;-66
2021/09/15 12:08:09;;;;;;;;;;;;;;;;;;5038751;28;19924;-66
2021/09/15 12:10:53;;;;;;;;;;;;;;;;;;5042435;28;20407;-66
2021/09/15 12:13:38;;;;;;;;;;;;;;;;;;5044502;28;19920;-66
2021/09/15 12:16:22;;;;;;;;;;;;;;;;;;5046468;28;20289;-66
2021/09/15 12:19:06;;;;;;;;;;;;;;;;;;5039054;28;19928;-66
2021/09/15 12:21:50;;;;;;;;;;;;;;;;;;5043109;28;19921;-66
2021/09/15 12:24:35;;;;;;;;;;;;;;;;;;5051851;28;19920;-66
2021/09/15 12:27:20;;;;;;;;;;;;;;;;;;5044422;28;19928;-66
2021/09/15 12:30:05;;;;;;;;;;;;;;;;;;5058177;28;20400;-66
2021/09/15 12:32:49;;;;;;;;;;;;;;;;;;5050502;28;19924;-66
2021/09/15 12:35:33;;;;;;;;;;;;;;;;;;5051441;28;20300;-66
2021/09/15 12:38:18;;;;;;;;;;;;;;;;;;5052640;28;19924;-66
2021/09/15 12:41:02;;;;;;;;;;;;;;;;;;5045797;28;19921;-66
2021/09/15 12:43:47;;;;;;;;;;;;;;;;;;5037379;28;20384;-66
2021/09/15 12:46:31;;;;;;;;;;;;;;;;;;5044847;28;19935;-66
2021/09/15 12:49:15;;;;;;;;;;;;;;;;;;5042616;28;19920;-66
2021/09/15 12:51:59;;;;;;;;;;;;;;;;;;5038551;28;19920;-66
2021/09/15 12:54:43;;;;;;;;;;;;;;;;;;5046025;28;19920;-66
2021/09/15 12:57:28;;;;;;;;;;;;;;;;;;5047133;28;20293;-66
2021/09/15 13:00:12;;;;;;;;;;;;;;;;;;5042071;28;19984;-66
2021/09/15 13:02:57;;;;;;;;;;;;;;;;;;5048139;28;19920;-66
2021/09/15 13:05:41;;;;;;;;;;;;;;;;;;5045255;28;19920;-66
2021/09/15 13:08:26;;;;;;;;;;;;;;;;;;5048621;28;19928;-66
2021/09/15 13:11:10;;;;;;;;;;;;;;;;;;5042850;28;19920;-66
2021/09/15 13:13:55;;;;;;;;;;;;;;;;;;5056480;28;19984;-66
2021/09/15 13:16:40;;;;;;;;;;;;;;;;;;5040717;28;20304;-66
2021/09/15 13:19:24;;;;;;;;;;;;;;;;;;5042865;28;19924;-66
2021/09/15 13:22:09;;;;;;;;;;;;;;;;;;5045773;28;20296;-66
2021/09/15 13:24:53;;;;;;;;;;;;;;;;;;5048395;28;19920;-66
2021/09/15 13:27:37;;;;;;;;;;;;;;;;;;5041270;28;19935;-66
2021/09/15 13:30:22;;;;;;;;;;;;;;;;;;5052036;28;20288;-66
2021/09/15 13:33:06;;;;;;;;;;;;;;;;;;5048144;28;19924;-66
2021/09/15 13:35:50;;;;;;;;;;;;;;;;;;5046198;28;19919;-66
2021/09/15 13:38:34;;;;;;;;;;;;;;;;;;5051053;28;19939;-66
2021/09/15 13:41:19;;;;;;;;;;;;;;;;;;5047417;28;19928;-66
2021/09/15 13:44:03;;;;;;;;;;;;;;;;;;5045248;28;19936;-66
2021/09/15 13:46:47;;;;;;;;;;;;;;;;;;5048199;28;19920;-66
2021/09/15 13:49:39;;;;;;;;;;;;;;;;;;5049467;28;19924;-66
2021/09/15 13:52:23;;;;;;;;;;;;;;;;;;5044926;28;19928;-66
2021/09/15 13:55:07;;;;;;;;;;;;;;;;;;5045248;28;20288;-66
2021/09/15 13:57:51;;;;;;;;;;;;;;;;;;5045180;28;19928;-66
2021/09/15 14:00:35;;;;;;;;;;;;;;;;;;5045342;28;19920;-66
2021/09/15 14:03:19;;;;;;;;;;;;;;;;;;5046465;28;19924;-66
2021/09/15 14:06:04;;;;;;;;;;;;;;;;;;5038828;28;19924;-66
2021/09/15 14:08:48;;;;;;;;;;;;;;;;;;5036056;28;19924;-66
2021/09/15 14:11:32;;;;;;;;;;;;;;;;;;5044434;28;19919;-66
2021/09/15 14:14:16;;;;;;;;;;;;;;;;;;5048323;28;19920;-66
2021/09/15 14:17:00;;;;;;;;;;;;;;;;;;5044973;28;19936;-65
2021/09/15 14:19:45;;;;;;;;;;;;;;;;;;5044260;28;19924;-66
2021/09/15 14:22:29;;;;;;;;;;;;;;;;;;5046626;28;19924;-66
2021/09/15 14:25:14;;;;;;;;;;;;;;;;;;5044690;28;19936;-66
2021/09/15 14:27:59;;;;;;;;;;;;;;;;;;5042395;28;19919;-66
2021/09/15 14:30:43;;;;;;;;;;;;;;;;;;5044229;28;19920;-66
2021/09/15 14:33:27;;;;;;;;;;;;;;;;;;5042011;28;19920;-66
2021/09/15 14:36:11;;;;;;;;;;;;;;;;;;5043588;28;19920;-66
2021/09/15 14:38:55;;;;;;;;;;;;;;;;;;5041314;28;20392;-66
2021/09/15 14:41:40;;;;;;;;;;;;;;;;;;5042873;28;20418;-66
2021/09/15 14:44:24;;;;;;;;;;;;;;;;;;5044287;28;19920;-66
2021/09/15 14:47:10;;;;;;;;;;;;;;;;;;5042046;28;20289;-66
2021/09/15 14:49:54;;;;;;;;;;;;;;;;;;5042606;28;19928;-66
2021/09/15 14:52:38;;;;;;;;;;;;;;;;;;5044131;28;19920;-66
2021/09/15 14:55:23;;;;;;;;;;;;;;;;;;5043435;28;19920;-66
2021/09/15 14:58:07;;;;;;;;;;;;;;;;;;5041345;28;19924;-65
2021/09/15 15:00:51;;;;;;;;;;;;;;;;;;5042124;28;19928;-66
2021/09/15 15:03:35;;;;;;;;;;;;;;;;;;5045181;28;19920;-66
2021/09/15 15:06:20;;;;;;;;;;;;;;;;;;5047004;28;19920;-67
2021/09/15 15:09:04;;;;;;;;;;;;;;;;;;5046667;28;20280;-67
2021/09/15 15:11:49;;;;;;;;;;;;;;;;;;5041646;28;19936;-67
2021/09/15 15:14:33;;;;;;;;;;;;;;;;;;5052606;28;19935;-67
2021/09/15 15:17:18;;;;;;;;;;;;;;;;;;5042949;28;19935;-67
2021/09/15 15:20:03;;;;;;;;;;;;;;;;;;5049296;28;19940;-67
2021/09/15 15:22:47;;;;;;;;;;;;;;;;;;5046384;28;19920;-67
2021/09/15 15:25:32;;;;;;;;;;;;;;;;;;5050561;28;20308;-67
2021/09/15 15:28:16;;;;;;;;;;;;;;;;;;5048349;28;20211;-66
2021/09/15 15:31:01;;;;;;;;;;;;;;;;;;5040715;28;20381;-70
2021/09/15 15:33:46;;;;;;;;;;;;;;;;;;5041418;28;19928;-72
2021/09/15 15:36:30;;;;;;;;;;;;;;;;;;5040572;28;19920;-69
2021/09/15 15:39:14;;;;;;;;;;;;;;;;;;5043886;28;19924;-71
2021/09/15 15:41:59;;;;;;;;;;;;;;;;;;5042504;28;19919;-67
2021/09/15 15:44:43;;;;;;;;;;;;;;;;;;5036187;28;19920;-69
2021/09/15 15:47:27;;;;;;;;;;;;;;;;;;5032572;28;19921;-70
2021/09/15 15:50:12;;;;;;;;;;;;;;;;;;5035211;28;19920;-69
2021/09/15 15:52:56;;;;;;;;;;;;;;;;;;5049773;28;19920;-70
2021/09/15 15:55:40;;;;;;;;;;;;;;;;;;5048032;28;19920;-70
2021/09/15 15:58:25;;;;;;;;;;;;;;;;;;5048689;28;19939;-72
2021/09/15 16:01:09;;;;;;;;;;;;;;;;;;5048966;28;19940;-72
2021/09/15 16:03:53;;;;;;;;;;;;;;;;;;5045908;28;19920;-72
2021/09/15 16:06:38;;;;;;;;;;;;;;;;;;5046396;28;19919;-72
2021/09/15 16:09:22;;;;;;;;;;;;;;;;;;5046635;28;19947;-72
2021/09/15 16:12:06;;;;;;;;;;;;;;;;;;5046225;28;20015;-72
2021/09/15 16:14:51;;;;;;;;;;;;;;;;;;5047633;28;19920;-72
2021/09/15 16:17:35;;;;;;;;;;;;;;;;;;5045990;28;20296;-72
2021/09/15 16:20:19;;;;;;;;;;;;;;;;;;5046494;28;19928;-72
2021/09/15 16:23:03;;;;;;;;;;;;;;;;;;5046872;28;19920;-72
2021/09/15 16:25:47;;;;;;;;;;;;;;;;;;5046087;28;19924;-72
2021/09/15 16:28:32;;;;;;;;;;;;;;;;;;5047655;28;20292;-72
2021/09/15 16:31:16;;;;;;;;;;;;;;;;;;5045612;28;19920;-72
2021/09/15 16:34:01;;;;;;;;;;;;;;;;;;5045919;28;19936;-72
2021/09/15 16:36:45;;;;;;;;;;;;;;;;;;5046710;28;20304;-69
2021/09/15 16:39:29;;;;;;;;;;;;;;;;;;5046179;28;20284;-66
2021/09/15 16:42:14;;;;;;;;;;;;;;;;;;5045234;28;20439;-66
2021/09/15 16:44:58;;;;;;;;;;;;;;;;;;5044837;28;19920;-66
2021/09/15 16:47:42;;;;;;;;;;;;;;;;;;5047615;28;19924;-66
2021/09/15 16:50:27;;;;;;;;;;;;;;;;;;5046742;28;20332;-66
2021/09/15 16:53:11;;;;;;;;;;;;;;;;;;5047859;28;19920;-66
2021/09/15 16:55:55;;;;;;;;;;;;;;;;;;5045261;28;20428;-66
2021/09/15 16:58:40;;;;;;;;;;;;;;;;;;5044604;28;19924;-70
2021/09/15 17:01:24;;;;;;;;;;;;;;;;;;5045708;28;19920;-70
2021/09/15 17:04:08;;;;;;;;;;;;;;;;;;5045710;28;19920;-70
2021/09/15 17:06:55;;;;;;;;;;;;;;;;;;5046923;28;19927;-67
2021/09/15 17:09:39;;;;;;;;;;;;;;;;;;5047467;28;19928;-68
2021/09/15 17:12:23;;;;;;;;;;;;;;;;;;5045695;28;19924;-65
2021/09/15 17:15:07;;;;;;;;;;;;;;;;;;5045256;28;19935;-66
2021/09/15 17:17:51;;;;;;;;;;;;;;;;;;5044925;28;19924;-66
2021/09/15 17:20:36;;;;;;;;;;;;;;;;;;5045161;28;20316;-66
2021/09/15 17:23:21;;;;;;;;;;;;;;;;;;5043920;28;19919;-67
2021/09/15 17:26:05;;;;;;;;;;;;;;;;;;5046266;28;20272;-66
2021/09/15 17:28:49;;;;;;;;;;;;;;;;;;5042918;28;20304;-69
2021/09/15 17:33:59;;;;;;;17.58;5.05;;;;;;;25.20;49.38;100672.09;5130654;27;20111;-63
2021/09/15 17:36:44;;;;;;;21.52;6.40;;;;;;;25.14;50.73;100682.16;5129896;28;20509;-65
2021/09/15 17:39:29;;;;;;;;;;;;;;;25.20;49.16;100679.66;5125112;28;20406;-63
2021/09/15 17:42:13;;;;;;;19.15;9.00;;;;;;;25.22;48.94;100680.06;5125534;28;19911;-62
2021/09/15 17:44:58;;;;;;;16.48;7.15;;;;;;;25.17;48.97;100692.44;5128108;27;20042;-64
2021/09/15 17:47:42;;;;;;;;;;;;;;;25.09;49.13;100691.72;5126948;28;20054;-63
2021/09/15 17:50:27;;;;;;;15.73;5.93;;;;;;;24.93;49.63;100688.72;5127747;28;19911;-65
2021/09/15 17:53:12;;;;;;;24.20;6.20;;;;;;;25.20;49.48;100691.59;5126494;28;20664;-62
2021/09/15 17:55:57;;;;;;;12.98;5.78;;;;;;;25.38;49.11;100692.19;5131856;27;20046;-63
2021/09/15 17:58:42;;;;;;;15.25;6.50;;;;;;;25.49;48.84;100692.84;5128446;28;20410;-61
2021/09/15 18:01:27;;;;;;;14.77;5.72;;;;;;;25.60;48.55;100686.38;5131188;27;20049;-63
2021/09/15 18:04:12;;;;;;;9.57;5.45;;;;;;;25.64;48.35;100693.47;5127782;27;20043;-63
2021/09/15 18:06:57;;;;;;;25.42;5.47;;;;;;;25.66;48.18;100695.81;5126013;27;20050;-62
2021/09/15 18:09:42;;;;;;;13.80;5.53;;;;;;;25.68;48.41;100687.84;5130458;27;20064;-60
2021/09/15 18:12:29;;;;;;;23.27;6.15;;;;;;;25.69;48.83;100689.44;5126704;28;20050;-63
2021/09/15 18:15:13;;;;;;;18.02;5.60;;;;;;;25.66;49.60;100687.47;5130472;27;20062;-63
2021/09/15 18:17:58;;;;;;;14.70;5.70;;;;;;;25.80;50.16;100699.19;5123182;27;20054;-61
2021/09/15 18:20:43;;;;;;;18.52;6.15;;;;;;;25.88;50.28;100692.34;5109168;28;20047;-61
2021/09/15 18:23:29;;;;;;;23.17;6.57;;;;;;;25.71;50.59;100681.44;5109186;28;20055;-61
2021/09/15 18:26:13;;;;;;;18.63;5.55;;;;;;;25.69;50.87;100675.50;5109052;28;20050;-61
2021/09/15 18:29:00;;;;;;;29.83;6.40;;;;;;;25.66;51.36;100682.69;5108992;28;20051;-62
2021/09/15 18:31:45;;;;;;;20.58;5.55;;;;;;;25.64;51.71;100687.13;5109183;28;20051;-61